createdAt,value
2019-04-05T00:02:05.112Z,8.90
2019-04-05T00:05:12.139Z,8.80
2019-04-05T00:08:19.177Z,8.85
2019-04-05T00:11:26.078Z,8.87
2019-04-05T00:14:35.038Z,9.04
2019-04-05T00:17:43.549Z,8.88
2019-04-05T00:20:50.392Z,8.84
2019-04-05T00:23:57.279Z,9.06
2019-04-05T00:27:04.130Z,8.76
2019-04-05T00:30:11.809Z,8.85
2019-04-05T00:33:18.657Z,8.88
2019-04-05T00:36:25.559Z,8.83
2019-04-05T00:39:32.840Z,8.77
2019-04-05T00:42:40.261Z,8.67
2019-04-05T00:45:47.154Z,8.67
2019-04-05T00:48:54.051Z,8.60
2019-04-05T00:52:00.921Z,8.66
2019-04-05T00:55:08.533Z,8.65
2019-04-05T00:58:15.395Z,8.77
2019-04-05T01:01:22.296Z,8.69
2019-04-05T01:04:33.639Z,8.78
2019-04-05T01:07:40.552Z,8.98
2019-04-05T01:10:47.403Z,8.98
2019-04-05T01:13:55.244Z,8.81
2019-04-05T01:17:02.348Z,8.78
2019-04-05T01:20:11.604Z,8.91
2019-04-05T01:23:18.923Z,8.99
2019-04-05T01:26:26.828Z,9.04
2019-04-05T01:29:35.333Z,8.93
2019-04-05T01:32:42.443Z,8.85
2019-04-05T01:35:49.334Z,8.95
2019-04-05T01:38:56.224Z,8.78
2019-04-05T01:42:03.149Z,8.64
2019-04-05T01:45:11.801Z,8.80
2019-04-05T01:48:18.800Z,8.60
2019-04-05T01:51:25.698Z,8.63
2019-04-05T01:54:36.016Z,8.61
2019-04-05T01:57:42.893Z,8.63
2019-04-05T02:00:49.751Z,8.54
2019-04-05T02:03:56.822Z,8.60
2019-04-05T02:07:03.680Z,8.43
2019-04-05T02:10:11.096Z,8.62
2019-04-05T02:13:18.082Z,8.83
2019-04-05T02:16:25.094Z,8.70
2019-04-05T02:19:37.266Z,8.67
2019-04-05T02:22:44.272Z,8.52
2019-04-05T02:25:51.320Z,8.48
2019-04-05T02:28:58.317Z,8.59
2019-04-05T02:32:08.253Z,8.58
2019-04-05T02:35:15.130Z,8.56
2019-04-05T02:38:22.025Z,8.56
2019-04-05T02:41:30.950Z,8.60
2019-04-05T02:44:39.403Z,8.61
2019-04-05T02:47:53.553Z,8.61
2019-04-05T02:51:03.444Z,8.64
2019-04-05T02:54:11.144Z,8.59
2019-04-05T02:57:18.510Z,8.51
2019-04-05T03:00:25.589Z,8.51
2019-04-05T03:03:33.047Z,8.65
2019-04-05T03:06:40.708Z,8.37
2019-04-05T03:09:47.920Z,8.23
2019-04-05T03:12:54.797Z,8.49
2019-04-05T03:16:05.462Z,8.29
2019-04-05T03:19:24.227Z,8.37
2019-04-05T03:22:36.691Z,8.25
2019-04-05T03:25:43.800Z,8.42
2019-04-05T03:28:54.145Z,8.14
2019-04-05T03:32:01.171Z,8.32
2019-04-05T03:35:08.266Z,8.33
2019-04-05T03:38:15.463Z,8.34
2019-04-05T03:41:23.499Z,8.40
2019-04-05T03:44:31.888Z,8.16
2019-04-05T03:47:38.750Z,8.45
2019-04-05T03:50:45.964Z,8.35
2019-04-05T03:53:52.899Z,8.12
2019-04-05T03:57:00.017Z,8.25
2019-04-05T04:00:07.685Z,8.24
2019-04-05T04:03:15.287Z,8.30
2019-04-05T04:06:22.160Z,8.22
2019-04-05T04:09:30.620Z,8.28
2019-04-05T04:12:37.795Z,8.14
2019-04-05T04:15:44.961Z,8.16
2019-04-05T04:18:52.139Z,8.12
2019-04-05T04:22:26.221Z,8.15
2019-04-05T04:25:37.939Z,8.10
2019-04-05T04:28:46.437Z,8.07
2019-04-05T04:31:53.586Z,8.16
2019-04-05T04:35:00.466Z,8.23
2019-04-05T04:38:08.724Z,8.27
2019-04-05T04:41:16.113Z,8.11
2019-04-05T04:44:23.223Z,8.15
2019-04-05T04:47:32.979Z,8.16
2019-04-05T04:50:40.246Z,8.25
2019-04-05T04:53:47.456Z,8.10
2019-04-05T04:56:54.346Z,8.15
2019-04-05T05:00:01.257Z,8.19
2019-04-05T05:03:08.838Z,8.31
2019-04-05T05:06:15.834Z,8.30
2019-04-05T05:09:23.298Z,8.31
2019-04-05T05:12:34.954Z,8.28
2019-04-05T05:15:41.894Z,8.15
2019-04-05T05:18:49.008Z,8.24
2019-04-05T05:21:55.883Z,7.93
2019-04-05T05:25:02.975Z,8.07
2019-04-05T05:28:11.100Z,7.92
2019-04-05T05:31:18.364Z,8.13
2019-04-05T05:34:25.274Z,8.11
2019-04-05T05:37:34.285Z,8.19
2019-04-05T05:40:43.748Z,8.25
2019-04-05T05:43:50.935Z,8.14
2019-04-05T05:46:57.809Z,8.20
2019-04-05T05:50:05.118Z,8.37
2019-04-05T05:53:12.040Z,8.32
2019-04-05T05:56:18.926Z,8.30
2019-04-05T05:59:27.743Z,8.40
2019-04-05T06:02:38.376Z,8.41
2019-04-05T06:05:43.243Z,8.63
2019-04-05T06:08:50.141Z,8.83
2019-04-05T06:11:58.078Z,8.72
2019-04-05T06:15:05.990Z,8.33
2019-04-05T06:18:12.951Z,8.14
2019-04-05T06:21:21.038Z,8.28
2019-04-05T06:24:28.000Z,8.20
2019-04-05T06:27:36.822Z,8.23
2019-04-05T06:30:44.814Z,8.35
2019-04-05T06:33:51.722Z,8.53
2019-04-05T06:36:58.856Z,8.45
2019-04-05T06:40:06.325Z,8.42
2019-04-05T06:43:13.192Z,8.44
2019-04-05T06:46:20.074Z,8.41
2019-04-05T06:49:27.560Z,8.53
2019-04-05T06:52:36.880Z,8.65
2019-04-05T06:55:43.732Z,8.66
2019-04-05T06:58:52.138Z,8.69
2019-04-05T07:01:58.990Z,8.79
2019-04-05T07:05:06.462Z,8.69
2019-04-05T07:08:13.318Z,8.74
2019-04-05T07:11:20.218Z,8.82
2019-04-05T07:14:29.802Z,8.76
2019-04-05T07:17:36.992Z,8.83
2019-04-05T07:20:43.863Z,8.95
2019-04-05T07:23:50.770Z,8.76
2019-04-05T07:26:57.695Z,8.94
2019-04-05T07:30:05.064Z,8.96
2019-04-05T07:33:12.321Z,8.98
2019-04-05T07:36:19.278Z,8.98
2019-04-05T07:39:26.423Z,8.91
2019-04-05T07:42:33.358Z,8.99
2019-04-05T07:45:40.237Z,8.92
2019-04-05T07:48:47.149Z,9.20
2019-04-05T07:51:54.012Z,9.33
2019-04-05T07:55:00.829Z,9.15
2019-04-05T07:58:08.789Z,9.22
2019-04-05T08:01:16.185Z,9.13
2019-04-05T08:04:23.047Z,9.21
2019-04-05T08:07:37.422Z,9.11
2019-04-05T08:10:46.016Z,9.22
2019-04-05T08:13:55.575Z,9.27
2019-04-05T08:17:02.456Z,9.30
2019-04-05T08:20:09.571Z,9.25
2019-04-05T08:23:16.431Z,9.32
2019-04-05T08:26:23.524Z,9.33
2019-04-05T08:29:30.383Z,9.39
2019-04-05T08:32:38.461Z,9.05
2019-04-05T08:35:46.520Z,9.37
2019-04-05T08:38:53.432Z,9.48
2019-04-05T08:42:00.304Z,9.41
2019-04-05T08:45:08.029Z,9.46
2019-04-05T08:48:14.894Z,9.64
2019-04-05T08:51:22.273Z,9.65
2019-04-05T08:54:33.221Z,9.71
2019-04-05T08:57:39.420Z,9.69
2019-04-05T09:00:46.302Z,9.71
2019-04-05T09:03:53.300Z,9.69
2019-04-05T09:07:00.141Z,9.73
2019-04-05T09:10:07.227Z,9.78
2019-04-05T09:13:15.159Z,9.73
2019-04-05T09:16:22.160Z,9.81
2019-04-05T09:19:29.212Z,9.81
2019-04-05T09:22:36.122Z,9.92
2019-04-05T09:25:44.349Z,9.86
2019-04-05T09:28:51.507Z,10.03
2019-04-05T09:31:58.376Z,9.99
2019-04-05T09:35:05.537Z,10.03
2019-04-05T09:38:13.621Z,9.97
2019-04-05T09:41:20.604Z,10.03
2019-04-05T09:44:28.632Z,10.20
2019-04-05T09:47:46.401Z,10.15
2019-04-05T09:50:54.787Z,10.06
2019-04-05T09:54:01.866Z,10.20
2019-04-05T09:57:08.756Z,10.18
2019-04-05T10:00:19.882Z,10.39
2019-04-05T10:03:27.447Z,10.54
2019-04-05T10:06:34.350Z,10.72
2019-04-05T10:09:44.995Z,10.60
2019-04-05T10:12:51.909Z,10.70
2019-04-05T10:15:59.016Z,10.73
2019-04-05T10:19:06.091Z,10.75
2019-04-05T10:22:12.952Z,10.80
2019-04-05T10:25:19.892Z,10.71
2019-04-05T10:28:26.766Z,10.81
2019-04-05T10:31:33.674Z,10.70
2019-04-05T10:34:41.965Z,10.92
2019-04-05T10:37:48.903Z,10.85
2019-04-05T10:40:57.888Z,10.89
2019-04-05T10:44:06.547Z,10.97
2019-04-05T10:47:13.617Z,11.08
2019-04-05T10:50:22.259Z,11.16
2019-04-05T10:53:29.168Z,11.25
2019-04-05T10:56:36.087Z,11.26
2019-04-05T10:59:46.615Z,11.45
2019-04-05T11:02:54.608Z,11.46
2019-04-05T11:06:01.483Z,11.56
2019-04-05T11:09:09.927Z,11.44
2019-04-05T11:12:16.874Z,11.48
2019-04-05T11:15:23.906Z,11.33
2019-04-05T11:18:32.828Z,11.52
2019-04-05T11:21:40.909Z,11.42
2019-04-05T11:24:47.778Z,11.44
2019-04-05T11:27:54.810Z,11.55
2019-04-05T11:31:01.678Z,11.35
2019-04-05T11:34:08.712Z,11.49
2019-04-05T11:37:16.899Z,11.46
2019-04-05T11:40:24.377Z,11.58
2019-04-05T11:43:34.180Z,11.51
2019-04-05T11:46:41.082Z,11.56
2019-04-05T11:49:50.124Z,11.79
2019-04-05T11:52:57.004Z,12.12
2019-04-05T11:56:14.435Z,12.34
2019-04-05T11:59:16.144Z,12.32
2019-04-05T12:02:27.291Z,12.25
2019-04-05T12:05:34.449Z,12.44
2019-04-05T12:08:42.219Z,12.42
2019-04-05T12:11:56.906Z,12.21
2019-04-05T12:15:06.201Z,12.45
2019-04-05T12:18:12.537Z,12.06
2019-04-05T12:21:21.064Z,12.20
2019-04-05T12:24:28.202Z,12.42
2019-04-05T12:27:35.094Z,12.38
2019-04-05T12:30:45.924Z,12.61
2019-04-05T12:33:52.553Z,12.62
2019-04-05T12:36:59.511Z,12.42
2019-04-05T12:40:10.250Z,12.51
2019-04-05T12:43:16.916Z,12.55
2019-04-05T12:46:24.149Z,12.61
2019-04-05T12:49:31.053Z,12.56
2019-04-05T12:52:38.146Z,12.52
2019-04-05T12:55:45.083Z,12.71
2019-04-05T12:58:53.684Z,12.61
2019-04-05T13:02:00.617Z,12.64
2019-04-05T13:05:08.297Z,12.74
2019-04-05T13:08:15.200Z,13.42
2019-04-05T13:11:25.792Z,14.06
2019-04-05T13:14:30.690Z,14.39
2019-04-05T13:17:38.272Z,14.42
2019-04-05T13:20:46.376Z,14.21
2019-04-05T13:23:53.239Z,14.06
2019-04-05T13:27:01.911Z,14.26
2019-04-05T13:30:09.041Z,13.68
2019-04-05T13:33:15.950Z,14.16
2019-04-05T13:36:23.438Z,14.18
2019-04-05T13:39:30.397Z,14.89
2019-04-05T13:42:37.360Z,14.10
2019-04-05T13:45:46.357Z,14.59
2019-04-05T13:48:53.578Z,14.09
2019-04-05T13:52:00.490Z,13.33
2019-04-05T13:55:10.437Z,13.73
2019-04-05T13:58:16.600Z,13.79
2019-04-05T14:01:23.655Z,14.02
2019-04-05T14:04:30.552Z,14.22
2019-04-05T14:07:39.032Z,14.18
2019-04-05T14:10:46.047Z,14.64
2019-04-05T14:13:54.287Z,14.12
2019-04-05T14:17:01.184Z,14.59
2019-04-05T14:20:09.400Z,14.54
2019-04-05T14:23:16.336Z,14.59
2019-04-05T14:26:23.251Z,14.73
2019-04-05T14:29:33.201Z,14.45
2019-04-05T14:32:38.726Z,14.38
2019-04-05T14:35:45.621Z,14.03
2019-04-05T14:38:52.566Z,14.12
2019-04-05T14:42:09.177Z,14.50
2019-04-05T14:45:08.807Z,14.34
2019-04-05T14:48:17.040Z,13.98
2019-04-05T14:51:24.207Z,14.17
2019-04-05T14:54:31.253Z,14.05
2019-04-05T14:57:38.124Z,14.01
2019-04-05T15:00:47.261Z,14.37
2019-04-05T15:03:54.691Z,14.30
2019-04-05T15:07:01.605Z,14.38
2019-04-05T15:10:08.801Z,14.19
2019-04-05T15:13:15.805Z,14.30
2019-04-05T15:16:23.496Z,14.23
2019-04-05T15:19:30.645Z,14.35
2019-04-05T15:22:37.518Z,14.18
2019-04-05T15:25:44.413Z,13.88
2019-04-05T15:28:54.644Z,14.00
2019-04-05T15:32:02.413Z,13.86
2019-04-05T15:35:10.844Z,13.88
2019-04-05T15:38:17.743Z,13.89
2019-04-05T15:41:24.616Z,13.94
2019-04-05T15:44:31.691Z,13.98
2019-04-05T15:47:38.785Z,13.99
2019-04-05T15:50:45.709Z,13.92
2019-04-05T15:53:53.125Z,13.74
2019-04-05T15:57:03.773Z,13.87
2019-04-05T16:00:12.825Z,13.71
2019-04-05T16:03:19.954Z,13.91
2019-04-05T16:06:27.394Z,13.88
2019-04-05T16:09:34.288Z,13.60
2019-04-05T16:12:41.174Z,13.62
2019-04-05T16:15:48.131Z,13.66
2019-04-05T16:18:55.001Z,13.62
2019-04-05T16:22:02.143Z,13.73
2019-04-05T16:25:10.828Z,13.53
2019-04-05T16:28:17.755Z,13.68
2019-04-05T16:31:24.699Z,13.73
2019-04-05T16:34:31.682Z,13.76
2019-04-05T16:37:38.666Z,13.75
2019-04-05T16:40:46.652Z,13.70
2019-04-05T16:43:53.535Z,13.71
2019-04-05T16:47:00.614Z,13.59
2019-04-05T16:50:08.546Z,13.48
2019-04-05T16:53:15.469Z,13.67
2019-04-05T16:56:28.945Z,13.57
2019-04-05T16:59:38.792Z,13.56
2019-04-05T17:02:45.959Z,13.49
2019-04-05T17:05:52.915Z,13.36
2019-04-05T17:09:01.819Z,13.33
2019-04-05T17:12:10.512Z,13.16
2019-04-05T17:15:18.039Z,13.29
2019-04-05T17:18:25.013Z,13.17
2019-04-05T17:21:31.895Z,13.27
2019-04-05T17:24:38.864Z,13.07
2019-04-05T17:27:45.755Z,13.08
2019-04-05T17:30:52.810Z,12.77
2019-04-05T17:33:59.809Z,12.67
2019-04-05T17:37:07.803Z,12.77
2019-04-05T17:40:14.832Z,12.71
2019-04-05T17:43:21.806Z,12.77
2019-04-05T17:46:28.719Z,11.99
2019-04-05T17:49:35.633Z,12.27
2019-04-05T17:52:42.556Z,12.56
2019-04-05T17:55:49.541Z,12.54
2019-04-05T17:58:56.842Z,11.78
2019-04-05T18:02:03.951Z,12.29
2019-04-05T18:05:10.866Z,12.27
2019-04-05T18:08:17.872Z,12.25
2019-04-05T18:11:24.756Z,12.12
2019-04-05T18:14:31.663Z,11.78
2019-04-05T18:17:38.746Z,12.06
2019-04-05T18:20:45.759Z,11.69
2019-04-05T18:23:52.902Z,11.62
2019-04-05T18:26:59.931Z,11.62
2019-04-05T18:30:07.616Z,11.40
2019-04-05T18:33:14.584Z,11.22
2019-04-05T18:36:21.582Z,10.82
2019-04-05T18:39:28.535Z,10.95
2019-04-05T18:42:35.437Z,10.81
2019-04-05T18:45:42.489Z,10.82
2019-04-05T18:48:49.472Z,10.65
2019-04-05T18:51:56.381Z,11.07
2019-04-05T18:55:03.323Z,11.15
2019-04-05T18:58:10.265Z,10.35
2019-04-05T19:01:17.371Z,10.33
2019-04-05T19:04:24.354Z,10.28
2019-04-05T19:07:31.271Z,10.40
2019-04-05T19:10:39.097Z,9.62
2019-04-05T19:14:00.546Z,10.30
2019-04-05T19:16:59.229Z,9.54
2019-04-05T19:20:06.786Z,9.51
2019-04-05T19:23:13.684Z,9.93
2019-04-05T19:26:20.544Z,10.04
2019-04-05T19:29:27.631Z,9.81
2019-04-05T19:51:30.877Z,8.18
2019-04-05T19:54:37.977Z,8.89
2019-04-05T19:57:46.592Z,8.95
2019-04-05T20:00:55.253Z,9.10
2019-04-05T20:04:02.653Z,9.12
2019-04-05T20:07:09.646Z,9.12
2019-04-05T20:10:16.605Z,9.00
2019-04-05T20:13:26.195Z,8.71
2019-04-05T20:16:32.228Z,8.66
2019-04-05T20:19:39.610Z,8.33
2019-04-05T20:22:49.273Z,8.42
2019-04-05T20:25:56.452Z,8.24
2019-04-05T20:29:09.633Z,8.53
2019-04-05T20:32:16.533Z,8.53
2019-04-05T20:35:23.406Z,8.19
2019-04-05T20:38:30.763Z,7.79
2019-04-05T20:41:39.421Z,8.32
2019-04-05T20:44:46.306Z,8.03
2019-04-05T20:47:53.297Z,7.26
2019-04-05T20:51:00.295Z,7.63
2019-04-05T20:54:07.257Z,7.06
2019-04-05T20:57:15.435Z,6.96
2019-04-05T21:00:23.871Z,7.56
2019-04-05T21:03:30.745Z,7.71
2019-04-05T21:06:40.644Z,7.19
2019-04-05T21:09:49.038Z,7.70
2019-04-05T21:12:56.091Z,7.46
2019-04-05T21:16:02.973Z,7.55
2019-04-05T21:19:09.826Z,6.97
2019-04-05T21:22:16.813Z,6.79
2019-04-05T21:25:23.694Z,7.22
2019-04-05T21:28:30.582Z,7.26
2019-04-05T21:31:38.775Z,7.12
2019-04-05T21:34:46.060Z,7.31
2019-04-05T21:37:52.971Z,6.84
2019-04-05T21:40:59.971Z,7.24
2019-04-05T21:44:08.700Z,7.17
2019-04-05T21:47:15.588Z,6.61
2019-04-05T21:50:22.463Z,6.13
2019-04-05T21:53:29.346Z,7.03
2019-04-05T21:56:38.360Z,6.34
2019-04-05T21:59:48.379Z,6.58
2019-04-05T22:02:55.320Z,6.82
2019-04-05T22:06:03.362Z,6.74
2019-04-05T22:09:11.000Z,6.52
2019-04-05T22:12:17.955Z,6.41
2019-04-05T22:15:24.823Z,6.68
2019-04-05T22:18:31.767Z,6.80
2019-04-05T22:21:40.284Z,6.63
2019-04-05T22:24:58.568Z,5.82
2019-04-05T22:27:56.119Z,6.14
2019-04-05T22:31:03.071Z,5.22
2019-04-05T22:34:09.961Z,6.08
2019-04-05T22:37:16.852Z,5.50
2019-04-05T22:40:23.688Z,6.08
2019-04-05T22:43:30.563Z,5.30
2019-04-05T22:46:37.597Z,5.75
2019-04-05T22:49:44.472Z,5.89
2019-04-05T22:52:51.319Z,6.01
2019-04-05T22:55:58.906Z,6.52
2019-04-05T22:59:05.756Z,6.00
2019-04-05T23:02:12.685Z,6.32
2019-04-05T23:05:19.546Z,5.80
2019-04-05T23:08:26.432Z,5.84
2019-04-05T23:11:33.646Z,5.32
2019-04-05T23:14:40.569Z,5.89
2019-04-05T23:17:47.626Z,6.12
2019-04-05T23:20:54.516Z,5.74
2019-04-05T23:24:01.401Z,5.60
2019-04-05T23:27:08.389Z,5.63
2019-04-05T23:30:17.544Z,6.08
2019-04-05T23:33:24.445Z,5.82
2019-04-05T23:36:31.301Z,5.57
2019-04-05T23:39:38.398Z,5.46
2019-04-05T23:42:48.164Z,5.38
2019-04-05T23:45:58.253Z,4.98
2019-04-05T23:49:05.092Z,5.34
2019-04-05T23:52:11.984Z,4.34
2019-04-05T23:55:18.830Z,4.16
2019-04-05T23:58:25.715Z,5.58
